createdAt,value
2016-03-19T07:59:23.763Z,98797
2016-03-19T07:59:36.141Z,98784
2016-03-19T07:59:48.188Z,98794
2016-03-19T08:00:00.532Z,98781
2016-03-19T08:00:12.610Z,98787
2016-03-19T08:00:26.032Z,98797
2016-03-19T08:00:38.284Z,98784
2016-03-19T08:00:50.487Z,98784
2016-03-19T08:01:02.315Z,98787
2016-03-19T08:01:14.159Z,98781
2016-03-19T08:01:25.909Z,98787
2016-03-19T08:01:38.880Z,98787
2016-03-19T08:01:51.130Z,98792
2016-03-19T08:02:02.834Z,98798
2016-03-19T08:02:14.974Z,98784
2016-03-19T08:02:26.568Z,98787
2016-03-19T08:02:38.133Z,98784
2016-03-19T08:02:50.462Z,98794
2016-03-19T08:03:02.337Z,98787
2016-03-19T08:03:14.696Z,98794
2016-03-19T08:03:27.071Z,98794
2016-03-19T08:03:38.917Z,98792
2016-03-19T08:03:51.167Z,98792
2016-03-19T08:04:03.151Z,98792
2016-03-19T08:04:14.729Z,98787
2016-03-19T08:04:26.542Z,98787
2016-03-19T08:04:45.936Z,98792
2016-03-19T08:04:58.718Z,98792
2016-03-19T08:05:13.218Z,98800
2016-03-19T08:05:25.499Z,98782
2016-03-19T08:05:38.220Z,98784
2016-03-19T08:05:50.079Z,98800
2016-03-19T08:06:02.923Z,98787
2016-03-19T08:06:14.782Z,98787
2016-03-19T08:06:30.738Z,98798
2016-03-19T08:06:43.019Z,98792
2016-03-19T08:06:56.238Z,98785
2016-03-19T08:07:09.019Z,98798
2016-03-19T08:07:21.926Z,98798
2016-03-19T08:07:34.740Z,98798
2016-03-19T08:07:47.131Z,98801
2016-03-19T08:07:59.412Z,98787
2016-03-19T08:08:11.053Z,98782
2016-03-19T08:08:27.021Z,98795
2016-03-19T08:08:39.228Z,98787
2016-03-19T08:08:52.103Z,98795
2016-03-19T08:09:03.868Z,98801
2016-03-19T08:09:15.524Z,98798
2016-03-19T08:09:28.183Z,98801
2016-03-19T08:09:40.261Z,98801
2016-03-19T08:09:52.276Z,98792
2016-03-19T08:10:04.776Z,98795
2016-03-19T08:10:16.901Z,98796
2016-03-19T08:10:29.108Z,98801
2016-03-19T08:10:41.733Z,98796
2016-03-19T08:10:54.576Z,98796
2016-03-19T08:11:07.342Z,98793
2016-03-19T08:11:20.154Z,98788
2016-03-19T08:11:33.251Z,98786
2016-03-19T08:11:46.017Z,98788
2016-03-19T08:11:58.454Z,98796
2016-03-19T08:12:11.204Z,98786
2016-03-19T08:12:23.423Z,98793
2016-03-19T08:12:38.864Z,98793
2016-03-19T08:12:51.285Z,98798
2016-03-19T08:13:03.192Z,98804
2016-03-19T08:13:16.098Z,98798
2016-03-19T08:13:27.804Z,98806
2016-03-19T08:13:40.117Z,98803
2016-03-19T08:13:52.117Z,98792
2016-03-19T08:14:03.960Z,98805
2016-03-19T08:14:16.023Z,98803
2016-03-19T08:14:28.057Z,98805
2016-03-19T08:14:40.370Z,98797
2016-03-19T08:14:52.682Z,98797
2016-03-19T08:15:05.526Z,98802
2016-03-19T08:15:17.307Z,98816
2016-03-19T08:15:28.950Z,98802
2016-03-19T08:15:40.825Z,98805
2016-03-19T08:15:52.872Z,98797
2016-03-19T08:16:05.606Z,98799
2016-03-19T08:16:17.481Z,98799
2016-03-19T08:16:29.468Z,98797
2016-03-19T08:16:41.093Z,98802
2016-03-19T08:16:53.343Z,98808
2016-03-19T08:17:05.468Z,98799
2016-03-19T08:17:18.765Z,98797
2016-03-19T08:17:31.595Z,98797
2016-03-19T09:25:17.900Z,98825
2016-03-19T09:25:33.278Z,98814
2016-03-19T09:25:46.856Z,98814
2016-03-19T09:26:03.903Z,98814
2016-03-19T09:26:19.388Z,98811
2016-03-19T09:26:30.875Z,98811
2016-03-19T09:26:42.766Z,98808
2016-03-19T09:26:54.250Z,98816
2016-03-19T09:27:05.703Z,98821
2016-03-19T09:27:17.219Z,98810
2016-03-19T09:27:29.299Z,98819
2016-03-19T09:27:40.768Z,98819
2016-03-19T09:27:52.408Z,98816
2016-03-19T09:28:03.971Z,98819
2016-03-19T09:28:16.283Z,98816
2016-03-19T09:28:28.349Z,98818
2016-03-19T09:28:39.958Z,98810
2016-03-19T09:28:51.552Z,98807
2016-03-19T09:29:03.036Z,98813
2016-03-19T09:29:14.646Z,98816
2016-03-19T09:29:26.786Z,98807
2016-03-19T09:29:42.586Z,98816
2016-03-19T09:29:54.164Z,98810
2016-03-19T09:30:05.727Z,98816
2016-03-19T09:30:19.352Z,98810
2016-03-19T09:30:31.417Z,98816
2016-03-19T10:27:49.207Z,98809
2016-03-19T10:28:01.660Z,98793
2016-03-19T10:28:13.832Z,98793
2016-03-19T10:28:25.254Z,98795
2016-03-19T10:28:36.755Z,98804
2016-03-19T10:28:48.380Z,98801
2016-03-19T10:29:06.193Z,98795
2016-03-19T10:29:17.630Z,98793
2016-03-19T10:29:29.052Z,98795
2016-03-19T10:29:42.116Z,98800
2016-03-19T10:29:54.022Z,98806
2016-03-19T10:30:05.772Z,98808
2016-03-19T10:30:17.209Z,98808
2016-03-19T10:30:28.662Z,98808
2016-03-19T10:30:44.852Z,98808
2016-03-19T10:30:56.758Z,98800
2016-03-19T10:31:08.571Z,98800
2016-03-19T12:10:57.523Z,98769
2016-03-19T12:11:12.523Z,98755
2016-03-19T12:11:23.898Z,98750
2016-03-19T12:11:35.323Z,98744
2016-03-19T12:11:48.292Z,98758
2016-03-19T12:12:00.011Z,98752
2016-03-19T12:12:12.245Z,98753
2016-03-19T12:12:24.073Z,98755
2016-03-19T12:12:35.514Z,98752
2016-03-19T12:12:47.920Z,98763
2016-03-19T12:12:59.967Z,98757
2016-03-19T12:13:20.998Z,98749
2016-03-19T12:13:32.594Z,98749
2016-03-19T12:13:44.266Z,98751
2016-03-19T12:13:56.641Z,98760
2016-03-19T12:14:08.703Z,98754
2016-03-19T12:14:20.234Z,98759
2016-03-19T12:14:31.753Z,98762
2016-03-19T12:14:43.737Z,98753
2016-03-19T12:14:55.534Z,98762
2016-03-19T12:15:07.878Z,98756
2016-03-19T12:15:22.440Z,98756
2016-03-19T12:15:34.130Z,98750
2016-03-19T12:15:45.755Z,98759
2016-03-19T12:15:57.161Z,98747
2016-03-19T12:16:09.567Z,98744
2016-03-19T12:16:21.114Z,98742
2016-03-19T12:16:32.602Z,98758
2016-03-19T12:16:44.180Z,98758
2016-03-19T12:16:56.274Z,98750
2016-03-19T12:17:07.820Z,98753
2016-03-19T12:17:19.336Z,98755
2016-03-19T12:17:30.916Z,98744
2016-03-19T12:17:42.854Z,98744
2016-03-19T12:17:54.447Z,98758
2016-03-19T12:18:06.010Z,98749
2016-03-19T12:18:17.526Z,98758
2016-03-19T12:18:29.104Z,98758
2016-03-19T12:18:41.467Z,98755
2016-03-19T12:18:53.561Z,98754
2016-03-19T12:19:06.123Z,98754
2016-03-19T12:19:17.686Z,98751
2016-03-19T12:19:29.623Z,98751
2016-03-19T12:19:41.485Z,98757
2016-03-19T12:19:53.641Z,98743
2016-03-19T12:20:10.313Z,98757
2016-03-19T12:20:22.485Z,98752
2016-03-19T12:20:34.644Z,98755
2016-03-19T12:20:46.269Z,98752
2016-03-19T12:20:57.910Z,98752
2016-03-19T12:21:09.613Z,98744
2016-03-19T12:21:21.144Z,98747
2016-03-19T12:21:33.380Z,98747
2016-03-19T12:21:45.037Z,98753
2016-03-19T12:21:56.630Z,98747
2016-03-19T12:22:09.240Z,98759
2016-03-19T12:22:20.724Z,98748
2016-03-19T12:22:32.243Z,98751
2016-03-19T12:22:43.774Z,98743
2016-03-19T12:22:55.383Z,98748
2016-03-19T12:23:06.993Z,98748
2016-03-19T12:23:18.993Z,98751
2016-03-19T12:23:30.493Z,98748
2016-03-19T12:23:42.371Z,98737
2016-03-19T12:23:54.339Z,98748
2016-03-19T12:24:05.839Z,98753
2016-03-19T12:24:17.418Z,98755
2016-03-19T12:24:28.886Z,98747
2016-03-19T12:24:40.452Z,98753
2016-03-19T12:24:51.936Z,98756
2016-03-19T12:25:03.342Z,98751
2016-03-19T12:25:15.249Z,98748
2016-03-19T12:25:27.389Z,98743
2016-03-19T12:25:38.907Z,98743
2016-03-19T12:25:50.376Z,98740
2016-03-19T12:26:02.141Z,98740
2016-03-19T12:26:13.923Z,98746
2016-03-19T12:26:25.360Z,98746
2016-03-19T12:26:37.081Z,98743
2016-03-19T12:26:48.471Z,98749
2016-03-19T12:27:00.065Z,98740
2016-03-19T13:32:07.210Z,98713
2016-03-19T13:32:23.632Z,98710
2016-03-19T13:32:34.946Z,98707
2016-03-19T13:32:49.946Z,98718
2016-03-19T13:33:01.321Z,98709
2016-03-19T13:33:12.665Z,98717
2016-03-19T13:33:24.024Z,98711
2016-03-19T13:33:35.371Z,98722
2016-03-19T13:33:47.387Z,98708
2016-03-19T13:33:59.324Z,98714
2016-03-19T13:34:10.684Z,98714
2016-03-19T13:34:22.059Z,98716
2016-03-19T13:34:33.748Z,98711
2016-03-19T13:34:45.092Z,98702
2016-03-19T13:34:56.420Z,98714
2016-03-19T13:35:07.748Z,98719
2016-03-19T13:35:20.467Z,98716
2016-03-19T13:35:33.893Z,98705
2016-03-19T13:35:46.549Z,98713
2016-03-19T13:35:58.143Z,98719
2016-03-19T13:36:10.752Z,98711
2016-03-19T13:36:22.487Z,98708
2016-03-19T13:36:33.817Z,98710
2016-03-19T13:36:46.692Z,98724
2016-03-19T13:36:58.520Z,98724
2016-03-19T13:37:09.864Z,98715
2016-03-19T13:37:22.035Z,98712
2016-03-19T13:37:34.382Z,98710
2016-03-19T13:38:02.085Z,98715
2016-03-19T13:38:13.538Z,98727
2016-03-19T13:38:24.976Z,98726
2016-03-19T13:38:36.431Z,98718
2016-03-19T13:38:47.884Z,98718
2016-03-19T13:38:59.806Z,98715
2016-03-19T13:39:11.947Z,98718
2016-03-19T13:39:23.478Z,98718
2016-03-19T13:39:35.637Z,98716
2016-03-19T13:39:47.450Z,98705
2016-03-19T13:39:58.950Z,98719
2016-03-19T13:40:11.309Z,98719
2016-03-19T13:40:23.325Z,98725
2016-03-19T13:40:34.937Z,98706
2016-03-19T13:40:47.125Z,98709
2016-03-19T13:40:58.921Z,98717
2016-03-19T13:41:11.312Z,98711
2016-03-19T13:41:22.812Z,98717
2016-03-19T13:41:36.737Z,98717
2016-03-19T13:41:49.096Z,98714
2016-03-19T13:42:02.284Z,98706
2016-03-19T13:42:14.112Z,98717
2016-03-19T13:42:25.534Z,98711
2016-03-19T13:42:36.974Z,98728
2016-03-19T13:42:48.474Z,98722
2016-03-19T13:43:00.381Z,98728
2016-03-19T13:43:11.787Z,98714
2016-03-19T13:43:23.240Z,98714
2016-03-19T13:43:35.133Z,98714
2016-03-19T13:43:47.539Z,98712
2016-03-19T13:43:58.929Z,98715
2016-03-19T13:44:10.461Z,98706
2016-03-19T13:44:22.508Z,98712
2016-03-19T13:44:33.932Z,98712
2016-03-19T13:44:45.245Z,98715
2016-03-19T13:44:56.573Z,98706
2016-03-19T13:45:07.979Z,98723
2016-03-19T13:45:19.339Z,98712
2016-03-19T13:45:30.698Z,98718
2016-03-19T13:45:42.639Z,98721
2016-03-19T13:45:54.014Z,98715
2016-03-19T13:46:06.670Z,98707
2016-03-19T13:46:18.670Z,98724
2016-03-19T13:46:31.576Z,98729
2016-03-19T13:46:43.937Z,98715
2016-03-19T13:46:56.266Z,98713
2016-03-19T13:47:08.219Z,98718
2016-03-19T13:47:19.969Z,98713
2016-03-19T13:47:35.627Z,98718
2016-03-19T13:47:47.127Z,98704
2016-03-19T13:47:58.627Z,98718
2016-03-19T13:48:11.236Z,98712
2016-03-19T13:48:23.033Z,98710
2016-03-19T13:48:35.067Z,98710
2016-03-19T14:19:50.433Z,98701
2016-03-19T14:20:04.855Z,98690
2016-03-19T14:20:16.230Z,98687
2016-03-19T14:20:28.011Z,98699
2016-03-19T14:20:42.873Z,98694
2016-03-19T14:20:54.217Z,98688
2016-03-19T14:21:08.623Z,98689
2016-03-19T14:21:20.389Z,98697
2016-03-19T14:21:31.826Z,98689
2016-03-19T14:21:43.250Z,98686
2016-03-19T14:21:54.672Z,98689
2016-03-19T14:22:06.985Z,98697
2016-03-19T14:22:19.000Z,98692
2016-03-19T14:22:30.438Z,98689
2016-03-19T14:22:42.659Z,98686
2016-03-19T14:22:55.800Z,98697
2016-03-19T14:23:08.191Z,98694
2016-03-19T14:23:21.300Z,98688
2016-03-19T14:23:32.834Z,98680
2016-03-19T14:23:44.287Z,98688
2016-03-19T14:23:55.662Z,98694
2016-03-19T14:24:07.772Z,98694
2016-03-19T14:24:19.194Z,98688
2016-03-19T14:24:30.787Z,98688
2016-03-19T14:24:42.368Z,98685
2016-03-19T14:24:53.821Z,98688
2016-03-19T14:25:05.305Z,98688
2016-03-19T14:25:17.368Z,98677
2016-03-19T14:25:29.352Z,98682
2016-03-19T14:25:41.354Z,98685
2016-03-19T14:25:52.838Z,98691
2016-03-19T14:26:04.276Z,98690
2016-03-19T14:26:16.104Z,98685
2016-03-19T14:26:29.651Z,98685
2016-03-19T14:26:41.655Z,98682
2016-03-19T14:26:53.139Z,98688
2016-03-19T14:27:04.592Z,98685
2016-03-19T14:27:16.124Z,98685
2016-03-19T14:27:27.624Z,98680
2016-03-19T14:27:39.907Z,98685
2016-03-19T14:27:51.422Z,98685
2016-03-19T14:28:02.907Z,98683
2016-03-19T14:28:14.922Z,98680
2016-03-19T14:28:26.407Z,98691
2016-03-19T14:28:39.410Z,98674
2016-03-19T14:28:50.925Z,98680
2016-03-19T14:29:03.457Z,98674
2016-03-19T14:29:19.175Z,98685
2016-03-19T14:29:31.441Z,98674
2016-03-19T14:29:43.927Z,98680
2016-03-19T14:29:56.193Z,98677
2016-03-19T14:30:08.037Z,98677
2016-03-19T14:30:20.224Z,98691
2016-03-19T14:30:32.568Z,98685
2016-03-19T14:30:44.040Z,98691
2016-03-19T14:30:55.852Z,98691
2016-03-19T14:31:08.134Z,98685
2016-03-19T14:31:20.118Z,98682
2016-03-19T14:31:31.555Z,98680
2016-03-19T14:31:43.058Z,98685
2016-03-19T14:31:54.918Z,98674
2016-03-19T14:32:06.371Z,98688
2016-03-19T14:32:17.824Z,98674
2016-03-19T14:32:29.246Z,98680
2016-03-19T14:32:40.670Z,98685
2016-03-19T14:32:52.060Z,98688
2016-03-19T14:33:03.514Z,98680
2016-03-19T14:33:15.545Z,98688
2016-03-19T14:33:27.014Z,98683
2016-03-19T14:33:38.471Z,98685
2016-03-19T14:33:49.939Z,98677
2016-03-19T14:34:01.393Z,98688
2016-03-19T14:34:12.877Z,98683
2016-03-19T14:34:24.361Z,98683
2016-03-19T14:34:35.801Z,98672
2016-03-19T14:34:47.223Z,98677
2016-03-19T14:34:58.660Z,98677
2016-03-19T14:35:10.863Z,98688
2016-03-19T14:35:22.285Z,98680
2016-03-19T14:35:34.273Z,98682
2016-03-19T16:14:39.414Z,98663
2016-03-19T16:14:51.976Z,98656
2016-03-19T16:15:03.554Z,98657
2016-03-19T16:15:15.070Z,98657
2016-03-19T16:15:26.570Z,98658
2016-03-19T16:15:38.134Z,98648
2016-03-19T16:15:49.650Z,98656
2016-03-19T16:16:01.603Z,98652
2016-03-19T16:16:13.509Z,98652
2016-03-19T16:16:25.494Z,98664
2016-03-19T16:16:37.263Z,98648
2016-03-19T16:16:48.795Z,98656
2016-03-19T16:17:00.966Z,98651
2016-03-19T16:17:13.420Z,98653
2016-03-19T16:17:25.466Z,98648
2016-03-19T16:17:36.968Z,98658
2016-03-19T16:17:48.781Z,98658
2016-03-19T16:18:01.031Z,98656
2016-03-19T16:18:13.750Z,98657
2016-03-19T16:18:26.078Z,98657
2016-03-19T16:18:37.909Z,98657
2016-03-19T16:18:51.471Z,98663
2016-03-19T16:19:03.034Z,98655
2016-03-19T16:19:23.378Z,98657
2016-03-19T16:19:35.786Z,98647
2016-03-19T16:19:48.427Z,98652
2016-03-19T16:20:00.052Z,98668
2016-03-19T16:20:12.255Z,98657
2016-03-19T16:20:25.552Z,98665
2016-03-19T16:20:38.945Z,98665
2016-03-19T16:20:50.586Z,98660
2016-03-19T16:21:04.273Z,98657
2016-03-19T16:21:16.726Z,98660
2016-03-19T16:21:28.695Z,98665
2016-03-19T16:21:40.417Z,98665
2016-03-19T16:21:52.073Z,98660
2016-03-19T16:22:04.886Z,98660
2016-03-19T16:22:17.714Z,98660
2016-03-19T16:22:29.245Z,98662
2016-03-19T16:22:40.826Z,98649
2016-03-19T16:22:53.201Z,98658
2016-03-19T16:23:05.201Z,98661
2016-03-19T16:23:17.279Z,98653
2016-03-19T16:23:29.123Z,98661
2016-03-19T16:23:41.141Z,98672
2016-03-19T16:23:52.984Z,98656
2016-03-19T16:24:04.766Z,98658
2016-03-19T16:24:16.953Z,98656
2016-03-19T16:24:28.609Z,98664
2016-03-19T16:24:40.612Z,98661
2016-03-19T16:24:52.144Z,98656
2016-03-19T16:25:03.644Z,98658
2016-03-19T16:25:15.394Z,98663
2016-03-19T16:25:27.034Z,98660
2016-03-19T16:25:38.631Z,98663
2016-03-19T16:25:50.147Z,98657
2016-03-19T16:26:02.069Z,98660
2016-03-19T16:26:14.084Z,98665
2016-03-19T16:26:26.615Z,98666
2016-03-19T16:26:38.617Z,98677
2016-03-19T16:26:50.680Z,98666
2016-03-19T16:27:02.649Z,98666
2016-03-19T16:27:14.149Z,98671
2016-03-19T16:27:26.680Z,98671
2016-03-19T16:27:38.917Z,98668
2016-03-19T16:27:50.542Z,98665
2016-03-19T16:28:02.074Z,98674
2016-03-19T16:28:13.574Z,98665
2016-03-19T16:28:25.152Z,98671
2016-03-19T16:28:37.280Z,98665
2016-03-19T16:28:49.217Z,98660
2016-03-19T16:29:00.748Z,98663
2016-03-19T16:29:12.686Z,98679
2016-03-19T16:29:27.561Z,98680
2016-03-19T16:29:39.500Z,98663
2016-03-19T16:29:51.157Z,98660
2016-03-19T16:30:03.125Z,98672
2016-03-19T16:30:15.344Z,98666
2016-03-19T16:30:28.094Z,98663
2016-03-19T16:30:43.582Z,98660
2016-03-19T16:30:56.300Z,98672
2016-03-19T17:03:25.011Z,98693
2016-03-19T17:03:36.655Z,98687
2016-03-19T17:03:48.764Z,98701
2016-03-19T17:04:00.796Z,98693
2016-03-19T17:04:13.639Z,98693
2016-03-19T17:04:25.421Z,98704
2016-03-19T17:04:37.408Z,98695
2016-03-19T17:04:49.877Z,98701
2016-03-19T17:05:01.345Z,98695
2016-03-19T17:05:12.830Z,98687
2016-03-19T17:05:24.908Z,98701
2016-03-19T17:05:36.941Z,98696
2016-03-19T17:05:49.379Z,98690
2016-03-19T17:06:01.676Z,98693
2016-03-19T17:06:13.238Z,98707
2016-03-19T17:06:25.801Z,98707
2016-03-19T17:06:38.322Z,98693
2016-03-19T17:06:51.025Z,98707
2016-03-19T17:07:10.931Z,98698
2016-03-19T17:07:23.463Z,98696
2016-03-19T17:07:35.013Z,98701
2016-03-19T17:07:46.622Z,98707
2016-03-19T17:07:58.169Z,98701
2016-03-19T17:08:10.106Z,98690
2016-03-19T17:08:21.669Z,98696
2016-03-19T17:08:33.575Z,98701
2016-03-19T17:08:45.766Z,98695
2016-03-19T17:08:58.016Z,98704
2016-03-19T17:09:09.516Z,98707
2016-03-19T17:09:21.094Z,98701
2016-03-19T17:09:33.297Z,98696
2016-03-19T17:09:45.002Z,98696
2016-03-19T17:09:56.486Z,98704
2016-03-19T17:10:07.955Z,98710
2016-03-19T17:10:19.408Z,98693
2016-03-19T17:10:31.252Z,98713
2016-03-19T17:10:43.772Z,98704
2016-03-19T17:10:55.428Z,98699
2016-03-19T17:11:07.365Z,98696
2016-03-19T17:11:22.053Z,98704
2016-03-19T17:11:34.006Z,98699
2016-03-19T17:11:46.195Z,98702
2016-03-19T17:11:57.836Z,98703
2016-03-19T17:12:09.445Z,98695
2016-03-19T17:12:21.008Z,98704
2016-03-19T17:12:33.289Z,98696
2016-03-19T17:12:44.808Z,98700
2016-03-19T17:12:56.542Z,98692
2016-03-19T17:13:08.214Z,98691
2016-03-19T17:13:20.370Z,98702
2016-03-19T17:13:32.370Z,98711
2016-03-19T17:13:44.529Z,98691
2016-03-19T17:13:56.216Z,98705
2016-03-19T17:14:07.763Z,98693
2016-03-19T17:14:19.560Z,98710
2016-03-19T17:14:31.091Z,98702
2016-03-19T17:14:42.719Z,98705
2016-03-19T17:14:54.266Z,98691
2016-03-19T17:15:05.844Z,98697
2016-03-19T17:15:17.375Z,98697
2016-03-19T17:15:28.985Z,98699
2016-03-19T17:15:40.597Z,98708
2016-03-19T17:15:52.175Z,98707
2016-03-19T17:16:03.863Z,98693
2016-03-19T17:16:15.456Z,98701
2016-03-19T17:16:27.941Z,98706
2016-03-19T17:16:40.193Z,98701
2016-03-19T17:16:51.771Z,98695
2016-03-19T17:17:03.318Z,98700
2016-03-19T17:17:14.818Z,98703
2016-03-19T17:17:27.583Z,98697
2016-03-19T17:17:39.322Z,98703
2016-03-19T17:17:51.478Z,98694
2016-03-19T17:18:03.087Z,98703
2016-03-19T17:18:14.728Z,98711
2016-03-19T17:18:26.369Z,98700
2016-03-19T17:18:37.949Z,98705
2016-03-19T17:18:50.027Z,98711
2016-03-19T17:19:01.918Z,98703
2016-03-19T17:19:13.949Z,98717
2016-03-19T18:45:43.183Z,98776
2016-03-19T18:45:55.683Z,98765
2016-03-19T18:46:07.964Z,98754
2016-03-19T18:46:20.573Z,98759
2016-03-19T18:46:32.573Z,98762
2016-03-19T18:46:44.967Z,98754
2016-03-19T18:46:56.983Z,98759
2016-03-19T18:47:08.764Z,98751
2016-03-19T18:47:20.233Z,98754
2016-03-19T18:47:32.155Z,98757
2016-03-19T18:47:46.579Z,98757
2016-03-19T18:47:58.501Z,98754
2016-03-19T18:48:10.204Z,98754
2016-03-19T18:48:22.314Z,98759
2016-03-19T18:48:34.033Z,98757
2016-03-19T18:48:45.878Z,98760
2016-03-19T18:48:57.394Z,98762
2016-03-19T18:49:08.925Z,98762
2016-03-19T18:49:22.675Z,98762
2016-03-19T18:49:34.675Z,98760
2016-03-19T18:49:46.599Z,98760
2016-03-19T18:49:58.458Z,98760
2016-03-19T18:50:10.193Z,98763
2016-03-19T18:50:21.833Z,98749
2016-03-19T18:50:33.318Z,98768
2016-03-19T18:50:45.305Z,98763
2016-03-19T18:50:57.071Z,98771
2016-03-19T18:51:08.899Z,98760
2016-03-19T18:51:21.227Z,98760
2016-03-19T18:51:32.633Z,98752
2016-03-19T18:51:44.480Z,98765
2016-03-19T18:52:01.449Z,98768
2016-03-19T18:52:14.621Z,98763
2016-03-19T18:52:26.589Z,98763
2016-03-19T18:52:39.124Z,98749
2016-03-19T18:52:51.030Z,98768
2016-03-19T18:53:02.546Z,98766
2016-03-19T18:53:14.889Z,98768
2016-03-19T18:53:26.858Z,98766
2016-03-19T18:53:38.719Z,98757
2016-03-19T18:53:50.454Z,98757
2016-03-19T18:54:09.454Z,98766
2016-03-19T18:54:21.344Z,98763
2016-03-19T18:54:32.782Z,98757
2016-03-19T18:54:44.269Z,98777
2016-03-19T18:54:55.785Z,98763
2016-03-19T18:55:07.691Z,98766
2016-03-19T18:55:19.222Z,98771
2016-03-19T18:55:30.660Z,98766
2016-03-19T18:55:42.413Z,98766
2016-03-19T18:55:54.397Z,98760
2016-03-19T18:56:06.272Z,98768
2016-03-19T18:56:17.757Z,98768
2016-03-19T18:56:29.257Z,98777
2016-03-19T18:56:40.743Z,98766
2016-03-19T18:56:52.243Z,98766
2016-03-19T18:57:03.743Z,98771
2016-03-19T18:57:15.306Z,98771
2016-03-19T18:57:27.274Z,98780
2016-03-19T18:57:39.293Z,98771
2016-03-19T18:57:54.918Z,98771
2016-03-19T18:58:07.043Z,98771
2016-03-19T18:58:19.215Z,98769
2016-03-19T18:58:31.246Z,98777
2016-03-19T18:58:43.155Z,98769
2016-03-19T18:58:54.718Z,98777
2016-03-19T18:59:06.624Z,98763
2016-03-19T18:59:18.265Z,98774
2016-03-19T18:59:29.780Z,98771
2016-03-19T18:59:41.721Z,98780
2016-03-19T18:59:53.955Z,98769
2016-03-19T19:00:06.174Z,98766
2016-03-19T19:00:19.096Z,98777
2016-03-19T19:00:30.908Z,98772
2016-03-19T19:00:43.957Z,98777
2016-03-19T19:00:56.926Z,98777
2016-03-19T19:01:13.629Z,98774
2016-03-19T19:01:25.817Z,98780
2016-03-19T19:01:38.070Z,98772
2016-03-19T19:01:50.945Z,98766
2016-03-19T19:02:04.038Z,98783
2016-03-19T19:02:16.273Z,98769
2016-03-19T19:36:50.171Z,98797
2016-03-19T19:37:06.296Z,98792
2016-03-19T19:37:24.155Z,98784
2016-03-19T19:37:44.015Z,98779
2016-03-19T19:37:59.578Z,98784
2016-03-19T19:38:15.015Z,98776
2016-03-19T19:38:32.187Z,98779
2016-03-19T19:38:49.314Z,98784
2016-03-19T19:39:05.924Z,98770
2016-03-19T19:39:22.611Z,98781
2016-03-19T19:39:37.629Z,98784
2016-03-19T19:39:54.426Z,98776
2016-03-19T19:40:11.801Z,98779
2016-03-19T19:40:31.441Z,98779
2016-03-19T19:40:50.179Z,98779
2016-03-19T19:41:04.726Z,98776
2016-03-19T19:41:27.101Z,98776
2016-03-19T19:41:52.884Z,98784
2016-03-19T19:42:18.259Z,98781
2016-03-19T19:42:38.840Z,98795
2016-03-19T19:43:05.074Z,98782
2016-03-19T19:43:32.465Z,98779
2016-03-19T19:44:02.968Z,98792
2016-03-19T19:44:25.890Z,98779
2016-03-19T19:44:44.190Z,98787
2016-03-19T19:45:02.877Z,98785
2016-03-19T19:45:20.940Z,98779
2016-03-19T19:45:41.457Z,98785
2016-03-19T19:46:00.489Z,98785
2016-03-19T19:46:27.817Z,98776
2016-03-19T19:46:47.334Z,98785
2016-03-19T19:47:16.631Z,98782
2016-03-19T19:47:38.587Z,98782
2016-03-19T19:48:05.712Z,98785
2016-03-19T19:48:28.572Z,98787
2016-03-19T19:49:02.497Z,98785
2016-03-19T19:49:35.356Z,98792
2016-03-19T19:50:12.780Z,98785
2016-03-19T19:51:02.104Z,98785
2016-03-19T19:51:29.026Z,98779
2016-03-19T19:51:52.591Z,98779
2016-03-19T19:52:14.544Z,98785
2016-03-19T19:52:35.294Z,98768
2016-03-19T19:52:54.031Z,98777
2016-03-19T19:53:12.890Z,98788
2016-03-19T19:53:27.828Z,98785
2016-03-19T19:53:48.439Z,98788
2016-03-19T19:54:04.096Z,98774
2016-03-19T19:54:21.955Z,98777
2016-03-19T19:54:38.270Z,98771
2016-03-19T19:55:00.489Z,98774
2016-03-19T19:55:20.489Z,98774
2016-03-19T19:55:44.023Z,98785
2016-03-19T19:56:07.195Z,98785
2016-03-19T19:56:28.023Z,98785
2016-03-19T19:56:46.760Z,98777
2016-03-19T19:57:08.838Z,98785
2016-03-19T19:57:26.088Z,98785
2016-03-19T19:57:44.529Z,98788
2016-03-19T19:58:03.873Z,98793
2016-03-19T19:58:22.904Z,98788
2016-03-19T19:58:43.375Z,98793
2016-03-19T19:58:59.203Z,98798
2016-03-19T19:59:16.078Z,98785
2016-03-19T19:59:35.672Z,98793
2016-03-19T19:59:52.784Z,98785
2016-03-19T20:00:10.191Z,98785
2016-03-19T20:00:26.284Z,98793
2016-03-19T20:00:42.943Z,98788
2016-03-19T20:01:02.771Z,98785
2016-03-19T20:01:17.302Z,98788
2016-03-19T20:01:41.071Z,98793
2016-03-19T20:02:06.586Z,98783
2016-03-19T20:02:29.180Z,98783
2016-03-19T20:02:50.449Z,98785
2016-03-19T20:03:10.277Z,98783
2016-03-19T20:03:29.636Z,98777
2016-03-19T20:03:48.936Z,98785
2016-03-19T20:04:15.795Z,98798
2016-03-19T20:04:38.126Z,98777
2016-03-19T20:05:05.376Z,98777
2016-03-19T20:05:37.362Z,98771
2016-03-19T20:06:03.878Z,98777
2016-03-19T20:06:31.854Z,98796
2016-03-19T20:06:52.061Z,98780
2016-03-19T20:07:13.249Z,98783
2016-03-19T20:07:36.531Z,98783
2016-03-19T20:07:57.330Z,98788
2016-03-19T20:08:15.408Z,98785
2016-03-19T20:08:36.502Z,98793
2016-03-19T20:08:57.317Z,98783
2016-03-19T20:09:14.661Z,98788
2016-03-19T20:09:35.005Z,98783
2016-03-19T20:09:55.694Z,98783
2016-03-19T20:10:16.147Z,98774
2016-03-19T20:10:37.291Z,98780
2016-03-19T20:10:59.244Z,98783
2016-03-19T20:11:35.369Z,98783
2016-03-19T20:12:10.403Z,98788
2016-03-19T20:12:39.187Z,98788
2016-03-19T20:13:10.562Z,98793
2016-03-19T20:13:44.159Z,98780
2016-03-19T20:14:23.925Z,98783
2016-03-19T20:15:04.318Z,98780
2016-03-19T20:15:46.539Z,98793
2016-03-19T20:16:20.758Z,98788
2016-03-19T20:16:55.994Z,98788
2016-03-19T20:17:32.510Z,98783
2016-03-19T20:18:09.763Z,98780
2016-03-19T20:18:51.438Z,98799
2016-03-19T20:19:34.469Z,98780
2016-03-19T20:20:07.174Z,98780
2016-03-19T20:20:41.193Z,98783
2016-03-19T20:21:16.865Z,98786
2016-03-19T20:22:01.087Z,98783
2016-03-19T20:22:51.386Z,98777
2016-03-19T20:23:29.418Z,98788
2016-03-19T20:24:04.810Z,98793
2016-03-19T20:24:44.063Z,98783
2016-03-19T20:25:26.220Z,98783
2016-03-19T20:26:08.816Z,98780
2016-03-19T20:26:53.975Z,98777
2016-03-19T20:27:35.725Z,98793
2016-03-19T20:28:12.087Z,98780
2016-03-19T20:28:56.917Z,98783
2016-03-19T20:29:41.140Z,98781
2016-03-19T20:30:19.015Z,98781
2016-03-19T20:31:01.157Z,98783
2016-03-19T20:31:33.532Z,98791
2016-03-19T20:32:05.035Z,98780
2016-03-19T20:32:38.287Z,98780
2016-03-19T20:33:18.725Z,98772
